Time;durP1;ratioP1;P1;durP2;ratioP2;P2;SDS_P1;SDS_P2;PMS_P1;PMS_P2;Temp;Humidity;BMP_temperature;BMP_pressure;BME280_temperature;BME280_humidity;BME280_pressure;Samples;Min_cycle;Max_cycle;Signal;HPM_P1;HPM_P2
2022/08/22 00:00:20;;;;;;;11.25;3.80;;;19.80;99.90;;;;;;5051115;28;20041;-60
2022/08/22 00:03:02;;;;;;;12.02;2.97;;;19.70;99.90;;;;;;5051129;28;20033;-60
2022/08/22 00:05:43;;;;;;;13.25;3.47;;;19.60;99.90;;;;;;5050977;28;20547;-60
2022/08/22 00:08:19;;;;;;;12.73;3.70;;;19.50;99.90;;;;;;5051119;28;20024;-60
2022/08/22 00:11:06;;;;;;;12.65;3.80;;;19.50;99.90;;;;;;5051033;28;20418;-60
2022/08/22 00:13:42;;;;;;;13.10;3.60;;;19.90;99.90;;;;;;5050932;28;20041;-60
2022/08/22 00:16:28;;;;;;;13.38;3.67;;;20.10;99.90;;;;;;5051139;28;20020;-60
2022/08/22 00:19:22;;;;;;;8.27;3.38;;;20.00;99.90;;;;;;5051258;28;20128;-60
2022/08/22 00:22:00;;;;;;;12.73;3.22;;;19.90;99.90;;;;;;5045012;28;20486;-60
2022/08/22 00:24:32;;;;;;;14.23;3.90;;;19.80;99.90;;;;;;5051005;28;20043;-60
2022/08/22 00:27:08;;;;;;;14.03;3.33;;;19.90;99.90;;;;;;5051116;28;20029;-60
2022/08/22 00:29:44;;;;;;;10.35;3.38;;;19.80;99.90;;;;;;5050724;28;20343;-60
2022/08/22 00:32:19;;;;;;;16.52;3.88;;;19.70;99.90;;;;;;5050546;28;20037;-60
2022/08/22 00:35:18;;;;;;;11.88;3.08;;;19.60;99.90;;;;;;5050549;28;20036;-60
2022/08/22 00:37:55;;;;;;;11.80;3.30;;;19.60;99.90;;;;;;5045065;28;20044;-60
2022/08/22 00:40:45;;;;;;;9.77;3.33;;;19.80;99.90;;;;;;5054534;28;20079;-60
2022/08/22 00:43:47;;;;;;;12.40;3.50;;;20.00;99.90;;;;;;5054516;28;20072;-60
2022/08/22 00:46:31;;;;;;;10.87;3.23;;;20.00;99.90;;;;;;5054566;28;20017;-59
2022/08/22 00:49:21;;;;;;;12.07;3.35;;;19.90;99.90;;;;;;5054453;28;20037;-61
2022/08/22 00:52:13;;;;;;;13.30;3.22;;;19.80;99.90;;;;;;5054212;28;20032;-58
2022/08/22 00:55:05;;;;;;;17.58;3.85;;;19.70;99.90;;;;;;5035407;28;20517;-60
2022/08/22 00:57:46;;;;;;;12.02;3.10;;;19.60;99.90;;;;;;5054459;28;20112;-60
2022/08/22 01:00:17;;;;;;;12.43;3.38;;;19.60;99.90;;;;;;5054217;28;20513;-60
2022/08/22 01:03:22;;;;;;;12.87;3.93;;;19.90;99.90;;;;;;5054077;28;20029;-60
2022/08/22 01:06:00;;;;;;;8.95;3.08;;;20.00;99.90;;;;;;5053957;28;20021;-58
2022/08/22 01:08:32;;;;;;;9.93;3.35;;;19.80;99.90;;;;;;5054219;28;20367;-58
2022/08/22 01:11:04;;;;;;;;;;;19.90;99.90;;;;;;5054321;28;20021;-60
2022/08/22 01:13:58;;;;;;;10.45;3.90;;;20.10;99.90;;;;;;5053972;28;19917;-60
2022/08/22 01:16:37;;;;;;;12.40;3.03;;;19.80;99.90;;;;;;5053701;28;20021;-60
2022/08/22 01:19:21;;;;;;;12.38;3.47;;;20.00;99.90;;;;;;5053709;28;20543;-60
2022/08/22 01:22:08;;;;;;;15.88;4.15;;;19.80;99.90;;;;;;5053620;28;20386;-60
2022/08/22 01:25:17;;;;;;;15.38;3.00;;;19.60;99.90;;;;;;5053536;28;20110;-60
2022/08/22 01:28:13;;;;;;;11.75;3.30;;;19.60;99.90;;;;;;5053850;28;20508;-60
2022/08/22 01:31:16;;;;;;;10.45;3.60;;;19.40;99.90;;;;;;5053509;28;20032;-60
2022/08/22 01:34:00;;;;;;;;;;;19.40;99.90;;;;;;5053760;28;20116;-60
2022/08/22 01:36:42;;;;;;;9.05;3.42;;;19.40;99.90;;;;;;5053284;28;19927;-60
2022/08/22 01:39:29;;;;;;;10.77;3.70;;;19.60;99.90;;;;;;5053459;28;20386;-60
2022/08/22 01:42:32;;;;;;;15.23;3.42;;;19.80;99.90;;;;;;5053323;28;20040;-60
2022/08/22 01:45:19;;;;;;;11.80;3.05;;;20.00;99.90;;;;;;5053175;28;20025;-61
2022/08/22 01:48:18;;;;;;;12.07;3.20;;;19.80;99.90;;;;;;5053186;28;20209;-60
2022/08/22 01:50:52;;;;;;;9.63;3.90;;;19.70;99.90;;;;;;5053105;28;20033;-60
2022/08/22 01:53:22;;;;;;;13.65;3.47;;;19.60;99.90;;;;;;5052935;28;20029;-60
2022/08/22 01:55:54;;;;;;;7.85;2.70;;;19.50;99.90;;;;;;5053025;28;20021;-59
2022/08/22 01:58:29;;;;;;;9.20;3.30;;;19.60;99.90;;;;;;5051611;28;20025;-60
2022/08/22 02:01:37;;;;;;;11.45;3.55;;;19.60;99.90;;;;;;5053072;28;20036;-59
2022/08/22 02:04:26;;;;;;;12.40;3.33;;;19.60;99.90;;;;;;5052970;28;20029;-60
2022/08/22 02:07:16;;;;;;;10.88;3.15;;;19.60;99.90;;;;;;5053170;28;20536;-59
2022/08/22 02:09:46;;;;;;;8.05;2.90;;;19.70;99.90;;;;;;5053093;28;20017;-59
2022/08/22 02:12:27;;;;;;;9.80;3.15;;;19.80;99.90;;;;;;5052582;28;20025;-59
2022/08/22 02:15:13;;;;;;;10.63;3.13;;;19.60;99.90;;;;;;5052743;28;20021;-59
2022/08/22 02:18:05;;;;;;;8.25;2.92;;;19.50;99.90;;;;;;5052617;28;20397;-59
2022/08/22 02:20:56;;;;;;;10.00;3.08;;;19.50;99.90;;;;;;5052654;28;20078;-59
2022/08/22 02:23:44;;;;;;;8.38;3.10;;;19.50;99.90;;;;;;5052825;28;20104;-59
2022/08/22 02:26:33;;;;;;;9.93;3.05;;;19.50;99.90;;;;;;5052480;28;20082;-60
2022/08/22 02:29:10;;;;;;;8.32;2.88;;;19.50;99.90;;;;;;5052427;28;20051;-59
2022/08/22 02:31:39;;;;;;;10.85;3.30;;;19.60;99.90;;;;;;5052196;28;20071;-59
2022/08/22 02:34:23;;;;;;;12.15;2.92;;;19.70;99.90;;;;;;5052472;28;20037;-60
2022/08/22 02:37:05;;;;;;;11.15;3.72;;;19.90;99.90;;;;;;5052422;28;20496;-60
2022/08/22 02:39:42;;;;;;;11.20;3.50;;;19.70;99.90;;;;;;5052704;28;20033;-59
2022/08/22 02:42:34;;;;;;;9.68;3.03;;;19.60;99.90;;;;;;5052198;28;20436;-59
2022/08/22 02:45:05;;;;;;;9.38;3.33;;;19.60;99.90;;;;;;5052203;28;20036;-59
2022/08/22 02:47:44;;;;;;;10.30;3.08;;;19.40;99.90;;;;;;5051997;28;20508;-61
2022/08/22 02:50:30;;;;;;;12.88;3.83;;;19.40;99.90;;;;;;5052299;28;20029;-60
2022/08/22 02:52:57;;;;;;;9.25;3.50;;;19.60;99.90;;;;;;5052408;28;20029;-59
2022/08/22 02:55:53;;;;;;;12.30;3.55;;;19.60;99.90;;;;;;5051833;28;20486;-59
2022/08/22 02:58:24;;;;;;;11.90;3.80;;;19.40;99.90;;;;;;5051993;28;20029;-59
2022/08/22 03:01:13;;;;;;;11.40;3.80;;;19.40;99.90;;;;;;5051868;28;20378;-59
2022/08/22 03:03:41;;;;;;;10.52;3.33;;;19.50;99.90;;;;;;5051556;28;20084;-59
2022/08/22 03:06:37;;;;;;;11.02;3.22;;;19.20;99.90;;;;;;5050295;28;20472;-59
2022/08/22 03:09:24;;;;;;;10.75;3.42;;;19.10;99.90;;;;;;5051577;28;20029;-59
2022/08/22 03:12:18;;;;;;;9.85;3.65;;;19.30;99.90;;;;;;5051541;28;20033;-59
2022/08/22 03:15:19;;;;;;;12.27;4.03;;;19.20;99.90;;;;;;5043669;28;20055;-59
2022/08/22 03:18:13;;;;;;;13.30;3.90;;;19.40;99.90;;;;;;5051187;28;20029;-60
2022/08/22 03:20:52;;;;;;;12.88;3.40;;;19.30;99.90;;;;;;5051406;28;20033;-59
2022/08/22 03:23:51;;;;;;;12.05;3.50;;;19.30;99.90;;;;;;5051336;28;20060;-60
2022/08/22 03:26:29;;;;;;;8.77;3.17;;;19.20;99.90;;;;;;5050106;28;20017;-59
2022/08/22 03:29:10;;;;;;;10.38;4.25;;;19.30;99.90;;;;;;5051383;28;20087;-59
2022/08/22 03:31:36;;;;;;;8.85;3.55;;;19.20;99.90;;;;;;5051253;28;20021;-60
2022/08/22 03:34:17;;;;;;;9.77;3.47;;;19.20;99.90;;;;;;5051377;28;20033;-59
2022/08/22 03:37:12;;;;;;;13.27;3.80;;;19.20;99.90;;;;;;5051214;28;20075;-59
2022/08/22 03:39:49;;;;;;;11.02;3.42;;;19.30;99.90;;;;;;5047184;28;20044;-59
2022/08/22 03:42:16;;;;;;;12.25;3.90;;;19.40;99.90;;;;;;5050978;28;20120;-59
2022/08/22 03:45:01;;;;;;;7.90;3.90;;;19.30;99.90;;;;;;5050852;28;20024;-59
2022/08/22 03:47:50;;;;;;;10.98;3.60;;;19.20;99.90;;;;;;5050935;28;20541;-59
2022/08/22 03:50:59;;;;;;;9.93;3.40;;;19.10;99.90;;;;;;5051162;28;20047;-59
2022/08/22 03:53:33;;;;;;;11.35;3.80;;;19.10;99.90;;;;;;5051215;28;20033;-59
2022/08/22 03:56:13;;;;;;;11.20;3.42;;;19.10;99.90;;;;;;5050819;28;20359;-60
2022/08/22 03:59:12;;;;;;;11.88;3.85;;;19.10;99.90;;;;;;5051277;28;20375;-59
2022/08/22 04:01:48;;;;;;;10.63;3.85;;;19.30;99.90;;;;;;5050960;28;20056;-59
2022/08/22 04:04:23;;;;;;;11.77;3.30;;;19.30;99.90;;;;;;5050953;28;20056;-59
2022/08/22 04:07:17;;;;;;;9.80;3.40;;;19.30;99.90;;;;;;5049739;28;20024;-59
2022/08/22 04:10:02;;;;;;;14.27;3.78;;;19.30;99.90;;;;;;5051382;28;20045;-59
2022/08/22 04:12:53;;;;;;;13.82;4.15;;;19.30;99.90;;;;;;5054292;28;20032;-59
2022/08/22 04:15:38;;;;;;;12.65;4.30;;;19.30;99.90;;;;;;5053563;28;20489;-59
2022/08/22 04:18:36;;;;;;;13.18;4.18;;;19.20;99.90;;;;;;5055120;28;20029;-59
2022/08/22 04:21:15;;;;;;;9.77;4.05;;;19.20;99.90;;;;;;5054869;28;20472;-59
2022/08/22 04:24:18;;;;;;;9.65;3.50;;;19.10;99.90;;;;;;5054750;28;20041;-59
2022/08/22 04:26:49;;;;;;;15.75;4.28;;;19.10;99.90;;;;;;5054951;28;20104;-59
2022/08/22 04:29:32;;;;;;;11.18;4.32;;;19.10;99.90;;;;;;5054950;28;20041;-59
2022/08/22 04:32:25;;;;;;;12.13;4.32;;;19.20;99.90;;;;;;5054741;28;20086;-59
2022/08/22 04:35:05;;;;;;;12.35;4.25;;;19.30;99.90;;;;;;5054488;28;20032;-59
2022/08/22 04:37:43;;;;;;;8.93;3.83;;;19.40;99.90;;;;;;5054575;28;20501;-60
2022/08/22 04:40:18;;;;;;;15.18;3.90;;;19.30;99.90;;;;;;5054654;28;20558;-59
2022/08/22 04:42:57;;;;;;;12.60;4.32;;;19.30;99.90;;;;;;5053167;28;20033;-59
2022/08/22 04:45:47;;;;;;;14.27;4.72;;;19.20;99.90;;;;;;5054428;28;20032;-59
2022/08/22 04:48:36;;;;;;;14.25;4.75;;;19.30;99.90;;;;;;5055002;28;20025;-59
2022/08/22 04:51:18;;;;;;;13.90;4.85;;;19.20;99.90;;;;;;5054166;28;20025;-59
2022/08/22 04:53:58;;;;;;;9.30;4.55;;;19.10;99.90;;;;;;5054101;28;20034;-59
2022/08/22 04:56:48;;;;;;;12.30;4.35;;;19.00;99.90;;;;;;5054210;28;20025;-59
2022/08/22 04:59:16;;;;;;;18.83;4.85;;;18.90;99.90;;;;;;5054414;28;20045;-59
2022/08/22 05:01:55;;;;;;;16.13;5.00;;;18.90;99.90;;;;;;5054065;28;20048;-60
2022/08/22 05:04:26;;;;;;;13.18;4.82;;;18.90;99.90;;;;;;5053968;28;20039;-59
2022/08/22 05:07:15;;;;;;;14.15;4.53;;;18.90;99.90;;;;;;5054080;28;20032;-59
2022/08/22 05:09:46;;;;;;;14.15;4.82;;;18.90;99.90;;;;;;5054152;28;20025;-59
2022/08/22 05:12:17;;;;;;;14.10;5.47;;;18.80;99.90;;;;;;5053829;28;20068;-59
2022/08/22 05:14:55;;;;;;;15.30;4.95;;;18.70;99.90;;;;;;5053477;28;20025;-59
2022/08/22 05:17:24;;;;;;;15.65;4.93;;;18.70;99.90;;;;;;5053763;28;20163;-60
2022/08/22 05:19:54;;;;;;;11.32;4.72;;;18.80;99.90;;;;;;5053655;28;20032;-59
2022/08/22 05:22:35;;;;;;;15.43;4.82;;;18.80;99.90;;;;;;5053132;28;20033;-59
2022/08/22 05:25:09;;;;;;;17.77;5.00;;;18.70;99.90;;;;;;5053292;28;20024;-59
2022/08/22 05:27:40;;;;;;;14.75;4.95;;;18.80;99.90;;;;;;5051844;28;20057;-59
2022/08/22 05:30:15;;;;;;;11.88;5.00;;;18.80;99.90;;;;;;5053421;28;20035;-59
2022/08/22 05:33:00;;;;;;;18.08;4.93;;;18.90;99.90;;;;;;5053098;28;20029;-59
2022/08/22 05:35:38;;;;;;;14.15;4.47;;;18.90;99.90;;;;;;5053173;28;20086;-59
2022/08/22 05:38:07;;;;;;;12.45;4.97;;;19.00;99.90;;;;;;5053308;28;20041;-59
2022/08/22 05:40:34;;;;;;;13.50;5.18;;;19.10;99.90;;;;;;5052890;28;20500;-59
2022/08/22 05:43:00;;;;;;;12.70;4.53;;;19.00;99.90;;;;;;5053160;28;20029;-59
2022/08/22 05:45:27;;;;;;;13.48;5.05;;;19.00;99.90;;;;;;5052929;28;20036;-59
2022/08/22 05:48:03;;;;;;;16.60;5.45;;;19.10;99.90;;;;;;5052998;28;20115;-59
2022/08/22 05:50:43;;;;;;;20.55;5.53;;;19.20;99.90;;;;;;5052914;28;20028;-60
2022/08/22 05:53:14;;;;;;;11.50;5.22;;;19.40;99.90;;;;;;5052741;28;20040;-59
2022/08/22 05:55:54;;;;;;;17.35;4.90;;;19.40;99.90;;;;;;5052973;28;20487;-59
2022/08/22 05:58:43;;;;;;;14.75;5.05;;;19.70;99.90;;;;;;5052815;28;20037;-59
2022/08/22 06:01:27;;;;;;;12.82;5.10;;;19.60;99.90;;;;;;5052679;28;20021;-59
2022/08/22 06:03:57;;;;;;;15.32;5.00;;;19.40;99.90;;;;;;5052674;28;20029;-59
2022/08/22 06:06:25;;;;;;;18.55;4.80;;;19.40;99.90;;;;;;5051560;28;20111;-59
2022/08/22 06:09:42;;;;;;;11.95;4.40;;;19.30;99.90;;;;;;5052908;28;20037;-59
2022/08/22 06:12:14;;;;;;;15.40;4.80;;;19.30;99.90;;;;;;5035035;28;20382;-59
2022/08/22 06:14:53;;;;;;;16.23;4.82;;;19.30;99.90;;;;;;5052556;28;20021;-60
2022/08/22 06:17:30;;;;;;;14.52;4.90;;;19.40;99.90;;;;;;5052442;28;20104;-60
2022/08/22 06:19:56;;;;;;;19.45;5.30;;;19.60;99.90;;;;;;5052513;28;20090;-60
2022/08/22 06:22:28;;;;;;;17.42;5.28;;;19.70;99.90;;;;;;5052245;28;20033;-60
2022/08/22 06:25:04;;;;;;;16.63;5.20;;;19.90;99.90;;;;;;5052308;28;20438;-60
2022/08/22 06:27:30;;;;;;;14.45;5.32;;;20.00;99.90;;;;;;5052175;28;20033;-60
2022/08/22 06:30:00;;;;;;;15.55;5.43;;;20.00;99.90;;;;;;5052428;28;20546;-60
2022/08/22 06:32:30;;;;;;;17.70;4.80;;;20.00;99.90;;;;;;5050724;28;20033;-60
2022/08/22 06:35:03;;;;;;;18.73;6.28;;;20.00;99.90;;;;;;5050961;28;20029;-60
2022/08/22 06:37:36;;;;;;;13.50;4.95;;;20.00;99.90;;;;;;5052025;28;20029;-59
2022/08/22 06:40:03;;;;;;;;;;;20.00;99.90;;;;;;5052568;28;20074;-59
2022/08/22 06:42:32;;;;;;;19.17;5.28;;;20.10;99.90;;;;;;5052018;28;19916;-59
2022/08/22 06:45:20;;;;;;;16.63;5.45;;;20.30;99.90;;;;;;5051649;28;20041;-59
2022/08/22 06:47:53;;;;;;;15.27;5.43;;;20.30;99.90;;;;;;5052053;28;20502;-59
2022/08/22 06:50:23;;;;;;;14.52;5.32;;;20.40;99.90;;;;;;5050574;28;20446;-59
2022/08/22 06:53:31;;;;;;;12.68;4.82;;;20.40;99.90;;;;;;5051845;28;20040;-59
2022/08/22 06:56:04;;;;;;;15.23;4.82;;;20.20;99.90;;;;;;5021372;28;20041;-59
2022/08/22 06:58:41;;;;;;;14.75;5.03;;;20.20;99.90;;;;;;5051808;28;20025;-59
2022/08/22 07:01:22;;;;;;;12.30;4.72;;;20.20;99.90;;;;;;5050034;28;20044;-59
2022/08/22 07:03:53;;;;;;;16.15;5.30;;;20.30;99.90;;;;;;5049746;28;20533;-59
2022/08/22 07:06:29;;;;;;;11.43;4.65;;;20.30;99.90;;;;;;5040240;28;20040;-59
2022/08/22 07:08:55;;;;;;;12.70;4.97;;;20.20;99.90;;;;;;5034290;28;20470;-59
2022/08/22 07:11:35;;;;;;;17.10;5.75;;;20.40;99.90;;;;;;5048681;28;20034;-59
2022/08/22 07:14:10;;;;;;;15.65;5.03;;;20.40;99.90;;;;;;5035686;28;20116;-59
2022/08/22 07:16:38;;;;;;;14.95;5.10;;;20.50;99.90;;;;;;5042968;28;20107;-59
2022/08/22 07:19:06;;;;;;;14.38;5.07;;;20.70;99.90;;;;;;5042261;28;20029;-59
2022/08/22 07:21:44;;;;;;;16.63;5.70;;;20.90;99.90;;;;;;5035088;28;20033;-59
2022/08/22 07:24:15;;;;;;;13.27;5.32;;;20.90;99.90;;;;;;5051103;28;20036;-59
2022/08/22 07:27:04;;;;;;;18.30;6.22;;;20.90;99.90;;;;;;5037857;28;20091;-59
2022/08/22 07:30:05;;;;;;;19.70;5.50;;;20.90;99.90;;;;;;5034877;28;20036;-59
2022/08/22 07:32:42;;;;;;;15.02;5.15;;;21.00;99.90;;;;;;5045731;28;20036;-59
2022/08/22 07:35:12;;;;;;;13.57;5.18;;;21.00;99.90;;;;;;5036763;28;20036;-59
2022/08/22 07:37:55;;;;;;;20.02;5.65;;;20.90;99.90;;;;;;5039398;28;20048;-59
2022/08/22 07:40:47;;;;;;;13.38;5.13;;;21.00;99.90;;;;;;5035832;28;20142;-59
2022/08/22 07:43:26;;;;;;;14.90;5.20;;;20.90;99.90;;;;;;5033919;28;20046;-59
2022/08/22 07:46:00;;;;;;;13.82;5.10;;;20.90;99.90;;;;;;5045810;28;20478;-60
2022/08/22 07:48:39;;;;;;;15.55;4.75;;;20.80;99.90;;;;;;5037364;28;20098;-59
2022/08/22 07:51:13;;;;;;;21.30;5.53;;;20.80;99.90;;;;;;5046167;28;20040;-60
2022/08/22 07:53:46;;;;;;;19.80;5.50;;;21.00;99.90;;;;;;5042843;28;20057;-60
2022/08/22 07:56:41;;;;;;;17.80;5.20;;;21.30;99.90;;;;;;5040113;28;20104;-61
2022/08/22 07:59:16;;;;;;;12.90;4.65;;;21.50;99.90;;;;;;5029338;28;20045;-60
2022/08/22 08:01:49;;;;;;;15.80;4.80;;;21.50;99.90;;;;;;5047278;28;20033;-61
2022/08/22 08:04:20;;;;;;;19.08;5.32;;;21.60;99.90;;;;;;5047596;28;20127;-61
2022/08/22 08:06:52;;;;;;;14.82;4.88;;;22.20;99.90;;;;;;5034054;28;20040;-60
2022/08/22 08:09:19;;;;;;;15.93;5.07;;;22.60;99.90;;;;;;5038610;28;20487;-61
2022/08/22 08:11:48;;;;;;;13.05;5.22;;;22.90;99.90;;;;;;5041619;28;20489;-60
2022/08/22 08:14:15;;;;;;;14.40;4.70;;;23.20;99.90;;;;;;5031508;28;20053;-59
2022/08/22 08:16:49;;;;;;;15.65;5.05;;;23.50;99.90;;;;;;5030939;28;20048;-59
2022/08/22 08:19:17;;;;;;;17.85;5.00;;;23.70;99.90;;;;;;5037698;28;20037;-60
2022/08/22 08:21:49;;;;;;;16.27;4.53;;;23.80;99.90;;;;;;5048249;28;20032;-60
2022/08/22 08:24:23;;;;;;;16.92;4.70;;;23.60;99.90;;;;;;5041041;28;20032;-60
2022/08/22 08:29:53;;;;;;;18.60;5.05;;;24.50;99.90;;;;;;5048026;28;20036;-60
2022/08/22 08:32:21;;;;;;;12.07;4.75;;;24.90;99.90;;;;;;5041577;28;20549;-59
2022/08/22 08:34:47;;;;;;;19.30;5.10;;;25.40;99.90;;;;;;5039859;28;20048;-60
2022/08/22 08:37:26;;;;;;;13.82;4.85;;;25.70;99.90;;;;;;5047344;28;20033;-60
2022/08/22 08:39:56;;;;;;;17.65;4.90;;;25.80;99.90;;;;;;5039557;28;20018;-61
2022/08/22 08:45:40;;;;;;;15.20;4.60;;;25.80;99.90;;;;;;5041385;28;20040;-61
2022/08/22 08:48:22;;;;;;;18.67;4.72;;;25.90;99.90;;;;;;5039900;28;20072;-61
2022/08/22 08:51:13;;;;;;;11.93;4.40;;;25.80;99.90;;;;;;5037738;28;20026;-61
2022/08/22 08:53:54;;;;;;;13.13;4.45;;;26.00;99.90;;;;;;5035250;28;20275;-60
2022/08/22 08:56:46;;;;;;;10.73;4.57;;;26.30;99.90;;;;;;5048976;28;20021;-60
2022/08/22 08:59:24;;;;;;;12.68;4.28;;;26.20;99.90;;;;;;5048218;28;20037;-60
2022/08/22 09:02:10;;;;;;;12.00;3.97;;;26.20;99.90;;;;;;5038732;28;20041;-61
2022/08/22 09:05:04;;;;;;;12.65;3.90;;;27.10;99.90;;;;;;5034931;28;20113;-61
2022/08/22 09:08:04;;;;;;;16.80;4.35;;;27.30;99.90;;;;;;5046082;28;20025;-61
2022/08/22 09:10:47;;;;;;;12.00;3.35;;;27.40;99.90;;;;;;5043645;28;20033;-61
2022/08/22 09:13:41;;;;;;;12.13;3.00;;;27.80;99.90;;;;;;5038032;28;20144;-62
2022/08/22 09:16:25;;;;;;;14.63;3.13;;;28.30;99.80;;;;;;5041825;28;20080;-60
2022/08/22 09:19:29;;;;;;;9.95;2.97;;;28.60;97.40;;;;;;5038621;28;20022;-60
2022/08/22 09:22:12;;;;;;;11.80;3.00;;;29.60;95.10;;;;;;5022909;28;20041;-61
2022/08/22 09:25:02;;;;;;;10.07;2.80;;;29.70;94.60;;;;;;5044012;28;20021;-62
2022/08/22 09:27:44;;;;;;;9.70;2.60;;;30.20;92.70;;;;;;5042740;28;20363;-62
2022/08/22 09:30:11;;;;;;;;;;;29.80;91.80;;;;;;5035900;28;20099;-62
2022/08/22 09:33:05;;;;;;;9.75;2.70;;;29.40;92.80;;;;;;5038719;28;19909;-60
2022/08/22 09:35:48;;;;;;;9.40;2.30;;;28.40;93.20;;;;;;5032547;28;20029;-62
2022/08/22 09:38:22;;;;;;;8.70;2.67;;;27.80;93.80;;;;;;5040987;28;20025;-63
2022/08/22 09:41:07;;;;;;;7.85;2.22;;;28.00;93.60;;;;;;5040841;28;20113;-61
2022/08/22 09:44:10;;;;;;;7.15;2.00;;;28.50;91.90;;;;;;5036864;28;20037;-60
2022/08/22 09:46:54;;;;;;;8.90;2.03;;;28.20;91.00;;;;;;5028689;28;20148;-60
2022/08/22 09:49:44;;;;;;;7.55;1.80;;;27.90;91.90;;;;;;5033014;28;20125;-60
2022/08/22 09:52:35;;;;;;;9.15;1.90;;;28.00;91.20;;;;;;5035758;28;20025;-60
2022/08/22 09:55:41;;;;;;;7.43;2.08;;;27.80;91.10;;;;;;5034234;28;20036;-61
2022/08/22 09:58:35;;;;;;;7.32;1.90;;;27.70;91.10;;;;;;5028094;28;20077;-61
2022/08/22 10:01:08;;;;;;;5.55;1.73;;;27.90;90.50;;;;;;5049162;28;20095;-61
2022/08/22 10:03:48;;;;;;;6.05;2.00;;;28.30;87.30;;;;;;5033874;28;20091;-60
2022/08/22 10:06:20;;;;;;;5.35;2.00;;;29.10;84.50;;;;;;5038815;28;20017;-61
2022/08/22 10:08:49;;;;;;;7.97;1.92;;;29.10;85.10;;;;;;5047983;28;20090;-61
2022/08/22 10:11:22;;;;;;;8.30;2.10;;;29.00;86.10;;;;;;5048771;28;20048;-61
2022/08/22 10:13:58;;;;;;;4.45;1.75;;;29.50;84.40;;;;;;5055626;28;20033;-61
2022/08/22 10:16:51;;;;;;;7.10;2.08;;;29.80;82.50;;;;;;5036451;28;20017;-61
2022/08/22 10:19:38;;;;;;;8.93;2.38;;;30.10;83.30;;;;;;5050490;28;20086;-61
2022/08/22 10:22:25;;;;;;;9.50;2.15;;;30.80;78.00;;;;;;5035837;28;20040;-63
2022/08/22 10:25:11;;;;;;;10.18;2.30;;;31.00;75.10;;;;;;5042224;28;20041;-63
2022/08/22 10:27:52;;;;;;;9.45;1.90;;;30.70;75.20;;;;;;5036652;28;20436;-62
2022/08/22 10:30:24;;;;;;;5.90;2.25;;;30.90;75.60;;;;;;5040311;28;20025;-62
2022/08/22 10:32:59;;;;;;;6.78;2.42;;;31.60;73.10;;;;;;5038469;28;20107;-61
2022/08/22 10:35:29;;;;;;;7.22;1.95;;;31.30;74.40;;;;;;5036743;28;20037;-61
2022/08/22 10:37:58;;;;;;;6.88;2.08;;;31.70;72.50;;;;;;5040727;28;20360;-61
2022/08/22 10:40:38;;;;;;;8.45;2.10;;;32.10;69.90;;;;;;5042580;28;20429;-61
2022/08/22 10:43:19;;;;;;;5.18;1.98;;;31.50;68.60;;;;;;5043657;28;20118;-61
2022/08/22 10:45:50;;;;;;;8.02;2.15;;;30.40;70.20;;;;;;5040069;28;20036;-61
2022/08/22 10:48:31;;;;;;;6.65;1.77;;;29.60;72.30;;;;;;5041119;28;20482;-61
2022/08/22 10:51:07;;;;;;;4.95;1.75;;;29.40;72.30;;;;;;5039225;28;20029;-61
2022/08/22 10:54:10;;;;;;;7.55;1.90;;;29.40;72.60;;;;;;5038305;28;20398;-61
2022/08/22 10:56:54;;;;;;;9.25;1.83;;;29.10;74.30;;;;;;5033811;28;20034;-61
2022/08/22 10:59:37;;;;;;;6.32;2.13;;;29.50;73.90;;;;;;5042408;28;20056;-61
2022/08/22 11:02:47;;;;;;;4.75;1.83;;;29.80;72.70;;;;;;5039645;28;20033;-61
2022/08/22 11:05:20;;;;;;;5.95;1.90;;;29.40;73.80;;;;;;5040490;28;20025;-61
2022/08/22 11:08:18;;;;;;;4.82;1.90;;;29.10;73.70;;;;;;5044969;28;20639;-61
2022/08/22 11:11:12;;;;;;;9.65;2.20;;;29.80;73.50;;;;;;5043226;28;20053;-61
2022/08/22 11:13:56;;;;;;;7.13;1.95;;;30.60;71.40;;;;;;5044987;28;20100;-62
2022/08/22 11:16:30;;;;;;;4.80;1.60;;;31.10;69.50;;;;;;5039517;28;20052;-61
2022/08/22 11:19:14;;;;;;;3.63;1.58;;;31.70;68.20;;;;;;5043981;28;20029;-62
2022/08/22 11:22:00;;;;;;;5.40;1.92;;;31.30;67.50;;;;;;5045098;28;20040;-61
2022/08/22 11:24:26;;;;;;;4.50;1.92;;;30.10;69.10;;;;;;5038091;28;20086;-61
2022/08/22 11:27:32;;;;;;;3.90;1.42;;;29.90;68.10;;;;;;5047327;28;20029;-62
2022/08/22 11:30:10;;;;;;;3.60;1.65;;;30.10;67.80;;;;;;5044582;28;20062;-62
2022/08/22 11:33:10;;;;;;;6.25;1.83;;;30.10;68.90;;;;;;5042357;28;20048;-62
2022/08/22 11:35:42;;;;;;;4.75;1.60;;;30.80;69.50;;;;;;5039569;28;20036;-62
2022/08/22 11:38:20;;;;;;;6.03;1.50;;;31.90;66.10;;;;;;5032684;28;20030;-62
2022/08/22 11:40:59;;;;;;;4.57;1.80;;;33.20;65.10;;;;;;5036786;28;20025;-62
2022/08/22 11:43:37;;;;;;;5.93;1.50;;;33.10;62.20;;;;;;5034570;28;20017;-62
2022/08/22 11:46:34;;;;;;;4.13;1.80;;;32.10;62.30;;;;;;5039971;28;21814;-61
2022/08/22 11:49:12;;;;;;;5.30;1.50;;;31.60;64.30;;;;;;5027979;28;20052;-61
2022/08/22 11:51:56;;;;;;;3.03;1.40;;;32.10;63.60;;;;;;5038616;28;20033;-62
2022/08/22 11:54:41;;;;;;;4.45;1.70;;;32.30;62.70;;;;;;5035598;28;20037;-62
2022/08/22 11:57:15;;;;;;;7.18;1.80;;;32.60;62.10;;;;;;5037047;28;20052;-62
2022/08/22 12:00:05;;;;;;;5.10;1.67;;;32.80;62.10;;;;;;5040850;28;20490;-62
2022/08/22 12:02:40;;;;;;;4.80;1.60;;;33.20;61.30;;;;;;5036684;28;20577;-62
2022/08/22 12:05:19;;;;;;;7.10;1.90;;;33.10;60.50;;;;;;5037493;28;20068;-61
2022/08/22 12:08:08;;;;;;;5.55;2.00;;;33.10;59.80;;;;;;5034168;28;20094;-62
2022/08/22 12:10:39;;;;;;;3.95;1.85;;;32.90;60.50;;;;;;5033093;28;20064;-62
2022/08/22 12:13:14;;;;;;;4.15;1.80;;;33.20;59.30;;;;;;5029387;28;20112;-62
2022/08/22 12:16:24;;;;;;;6.22;1.50;;;33.00;59.30;;;;;;5030042;28;20192;-62
2022/08/22 12:19:09;;;;;;;4.40;1.60;;;33.80;58.60;;;;;;5030044;28;20052;-62
2022/08/22 12:22:04;;;;;;;5.35;1.80;;;34.60;58.00;;;;;;5041346;28;20037;-61
2022/08/22 12:24:50;;;;;;;4.63;1.63;;;34.60;57.90;;;;;;5035366;28;20065;-62
2022/08/22 12:27:38;;;;;;;8.45;2.00;;;36.00;56.10;;;;;;5033942;28;20049;-62
2022/08/22 12:30:17;;;;;;;7.20;1.67;;;36.80;54.70;;;;;;5036852;28;20041;-62
2022/08/22 12:33:12;;;;;;;4.55;1.73;;;36.30;54.90;;;;;;5031754;28;20499;-62
2022/08/22 12:35:48;;;;;;;8.18;2.17;;;35.20;54.80;;;;;;5038581;28;20409;-63
2022/08/22 12:38:55;;;;;;;5.25;1.80;;;34.00;57.20;;;;;;5041234;28;20082;-62
2022/08/22 12:41:24;;;;;;;8.18;1.95;;;34.00;57.40;;;;;;5023356;28;20030;-62
2022/08/22 12:44:06;;;;;;;3.85;1.65;;;34.30;56.10;;;;;;5037582;28;20033;-63
2022/08/22 12:46:59;;;;;;;3.00;1.42;;;33.60;56.90;;;;;;5039488;28;20090;-62
2022/08/22 12:49:42;;;;;;;5.88;1.80;;;33.20;57.00;;;;;;5039715;28;20036;-62
2022/08/22 12:52:23;;;;;;;5.38;1.95;;;34.20;57.10;;;;;;5039865;28;20305;-63
2022/08/22 12:55:23;;;;;;;3.70;1.63;;;34.10;56.00;;;;;;5042728;28;20036;-63
2022/08/22 12:57:49;;;;;;;5.70;1.50;;;34.90;55.60;;;;;;5038172;28;20105;-63
2022/08/22 13:00:28;;;;;;;5.65;1.50;;;35.30;54.00;;;;;;5048375;28;20046;-62
2022/08/22 13:02:57;;;;;;;4.25;1.55;;;35.10;53.40;;;;;;5048223;28;20118;-63
2022/08/22 13:05:26;;;;;;;4.38;1.60;;;35.10;53.90;;;;;;5042211;28;20033;-63
2022/08/22 13:07:59;;;;;;;6.80;1.77;;;35.30;54.70;;;;;;5043001;28;20493;-63
2022/08/22 13:10:43;;;;;;;5.40;1.63;;;35.20;55.00;;;;;;5038381;28;20040;-62
2022/08/22 13:13:14;;;;;;;6.32;1.65;;;34.30;55.30;;;;;;5038822;28;20035;-62
2022/08/22 13:15:55;;;;;;;4.22;1.85;;;33.70;56.10;;;;;;5038894;28;20206;-67
2022/08/22 13:18:25;;;;;;;4.57;1.70;;;34.60;55.20;;;;;;5041665;28;20025;-62
2022/08/22 13:20:54;;;;;;;6.93;2.15;;;34.30;55.80;;;;;;5040206;28;20021;-63
2022/08/22 13:23:25;;;;;;;4.40;1.70;;;34.70;55.20;;;;;;5049550;28;20036;-61
2022/08/22 13:26:03;;;;;;;3.97;1.60;;;35.50;54.10;;;;;;5040298;28;20033;-63
2022/08/22 13:28:32;;;;;;;6.03;1.60;;;35.20;52.80;;;;;;5051149;28;20036;-63
2022/08/22 13:31:01;;;;;;;6.70;1.50;;;35.00;53.40;;;;;;5045794;28;20021;-62
2022/08/22 13:33:46;;;;;;;9.50;1.90;;;34.80;53.90;;;;;;5048144;28;20509;-62
2022/08/22 13:36:21;;;;;;;4.55;1.92;;;35.20;53.20;;;;;;5040067;28;20041;-62
2022/08/22 13:39:02;;;;;;;6.13;1.60;;;35.60;52.60;;;;;;5049335;28;20028;-62
2022/08/22 13:41:38;;;;;;;3.75;1.48;;;35.50;53.00;;;;;;5039056;28;20078;-62
2022/08/22 13:44:06;;;;;;;5.70;1.75;;;35.30;53.40;;;;;;5042747;28;20030;-62
2022/08/22 13:46:34;;;;;;;6.03;1.52;;;34.10;54.20;;;;;;5046078;28;20144;-62
2022/08/22 13:49:04;;;;;;;7.38;1.75;;;32.70;56.50;;;;;;5039063;28;20029;-63
2022/08/22 13:51:59;;;;;;;7.38;2.20;;;31.60;57.70;;;;;;5044702;28;20049;-62
2022/08/22 13:54:48;;;;;;;5.90;1.80;;;31.10;58.90;;;;;;5044593;28;20091;-63
2022/08/22 13:57:22;;;;;;;6.50;1.73;;;30.40;58.90;;;;;;5043987;28;20229;-62
2022/08/22 13:59:53;;;;;;;6.40;1.85;;;30.20;61.10;;;;;;5045327;28;20570;-61